sensor_id;sensor_type;location;lat;lon;timestamp;temperature;humidity
1123;DHT22;548;48.778;9.252;2022-09-13T01:42:35;15.30;99.90
1123;DHT22;548;48.778;9.252;2022-09-13T01:45:22;16.00;99.90
1123;DHT22;548;48.778;9.252;2022-09-13T01:47:54;15.20;99.90
1123;DHT22;548;48.778;9.252;2022-09-13T01:50:30;15.00;99.90
1123;DHT22;548;48.778;9.252;2022-09-13T01:53:04;15.20;99.90
1123;DHT22;548;48.778;9.252;2022-09-13T01:55:36;15.70;99.90
1123;DHT22;548;48.778;9.252;2022-09-13T01:58:12;15.00;99.90
1123;DHT22;548;48.778;9.252;2022-09-13T02:00:46;15.50;99.90
1123;DHT22;548;48.778;9.252;2022-09-13T02:03:17;15.00;99.90
1123;DHT22;548;48.778;9.252;2022-09-13T02:05:49;14.80;99.90
1123;DHT22;548;48.778;9.252;2022-09-13T02:08:20;14.80;99.90
1123;DHT22;548;48.778;9.252;2022-09-13T02:10:50;15.00;99.90
1123;DHT22;548;48.778;9.252;2022-09-13T02:13:22;15.20;99.90
1123;DHT22;548;48.778;9.252;2022-09-13T02:15:53;14.80;99.90
1123;DHT22;548;48.778;9.252;2022-09-13T02:18:24;15.30;99.90
1123;DHT22;548;48.778;9.252;2022-09-13T02:20:54;15.00;99.90
1123;DHT22;548;48.778;9.252;2022-09-13T02:23:29;14.70;99.90
1123;DHT22;548;48.778;9.252;2022-09-13T02:25:58;14.80;99.90
1123;DHT22;548;48.778;9.252;2022-09-13T02:28:32;14.80;99.90
1123;DHT22;548;48.778;9.252;2022-09-13T02:31:02;14.70;99.90
1123;DHT22;548;48.778;9.252;2022-09-13T02:33:33;14.60;99.90
1123;DHT22;548;48.778;9.252;2022-09-13T02:36:03;14.70;99.90
1123;DHT22;548;48.778;9.252;2022-09-13T02:38:36;14.70;99.90
1123;DHT22;548;48.778;9.252;2022-09-13T02:41:13;14.80;99.90
1123;DHT22;548;48.778;9.252;2022-09-13T02:43:45;14.60;99.90
1123;DHT22;548;48.778;9.252;2022-09-13T02:46:23;14.80;99.90
1123;DHT22;548;48.778;9.252;2022-09-13T02:48:58;14.60;99.90
1123;DHT22;548;48.778;9.252;2022-09-13T02:51:30;14.60;99.90
1123;DHT22;548;48.778;9.252;2022-09-13T02:54:06;14.50;99.90
1123;DHT22;548;48.778;9.252;2022-09-13T02:56:42;14.80;99.90
1123;DHT22;548;48.778;9.252;2022-09-13T02:59:14;14.20;99.90
1123;DHT22;548;48.778;9.252;2022-09-13T03:01:46;14.40;99.90
1123;DHT22;548;48.778;9.252;2022-09-13T03:04:13;14.40;99.90
1123;DHT22;548;48.778;9.252;2022-09-13T03:06:40;14.50;99.90
1123;DHT22;548;48.778;9.252;2022-09-13T03:11:44;14.50;99.90
1123;DHT22;548;48.778;9.252;2022-09-13T03:14:22;14.70;99.90
1123;DHT22;548;48.778;9.252;2022-09-13T03:17:07;14.50;99.90
1123;DHT22;548;48.778;9.252;2022-09-13T03:19:52;14.30;99.90
1123;DHT22;548;48.778;9.252;2022-09-13T03:22:31;14.40;99.90
1123;DHT22;548;48.778;9.252;2022-09-13T03:25:07;14.40;99.90
1123;DHT22;548;48.778;9.252;2022-09-13T03:27:43;14.50;99.90
1123;DHT22;548;48.778;9.252;2022-09-13T03:30:13;14.50;99.90
1123;DHT22;548;48.778;9.252;2022-09-13T03:32:47;14.20;99.90
1123;DHT22;548;48.778;9.252;2022-09-13T03:35:24;14.50;99.90
1123;DHT22;548;48.778;9.252;2022-09-13T03:37:56;14.50;99.90
1123;DHT22;548;48.778;9.252;2022-09-13T03:40:33;14.50;99.90
1123;DHT22;548;48.778;9.252;2022-09-13T03:43:04;14.50;99.90
1123;DHT22;548;48.778;9.252;2022-09-13T03:45:38;14.50;99.90
1123;DHT22;548;48.778;9.252;2022-09-13T03:48:06;14.40;99.90
1123;DHT22;548;48.778;9.252;2022-09-13T03:50:35;14.40;99.90
1123;DHT22;548;48.778;9.252;2022-09-13T03:53:06;14.30;99.90
1123;DHT22;548;48.778;9.252;2022-09-13T03:55:37;14.40;99.90
1123;DHT22;548;48.778;9.252;2022-09-13T04:00:32;14.30;99.90
1123;DHT22;548;48.778;9.252;2022-09-13T04:03:00;14.30;99.90
1123;DHT22;548;48.778;9.252;2022-09-13T04:05:27;14.20;99.90
1123;DHT22;548;48.778;9.252;2022-09-13T04:07:53;14.30;99.90
1123;DHT22;548;48.778;9.252;2022-09-13T04:10:21;14.20;99.90
1123;DHT22;548;48.778;9.252;2022-09-13T04:12:48;14.30;99.90
1123;DHT22;548;48.778;9.252;2022-09-13T04:15:16;14.30;99.90
1123;DHT22;548;48.778;9.252;2022-09-13T04:20:12;14.30;99.90
1123;DHT22;548;48.778;9.252;2022-09-13T04:22:38;14.20;99.90
1123;DHT22;548;48.778;9.252;2022-09-13T04:25:06;14.10;99.90
1123;DHT22;548;48.778;9.252;2022-09-13T04:27:33;14.10;99.90
1123;DHT22;548;48.778;9.252;2022-09-13T04:30:00;13.80;99.90
1123;DHT22;548;48.778;9.252;2022-09-13T04:34:55;14.00;99.90
1123;DHT22;548;48.778;9.252;2022-09-13T04:37:23;14.20;99.90
1123;DHT22;548;48.778;9.252;2022-09-13T04:39:49;14.10;99.90
1123;DHT22;548;48.778;9.252;2022-09-13T04:44:44;14.10;99.90
1123;DHT22;548;48.778;9.252;2022-09-13T04:47:11;13.90;99.90
1123;DHT22;548;48.778;9.252;2022-09-13T04:49:37;14.50;99.90
1123;DHT22;548;48.778;9.252;2022-09-13T04:52:04;14.10;99.90
1123;DHT22;548;48.778;9.252;2022-09-13T04:54:32;14.30;99.90
1123;DHT22;548;48.778;9.252;2022-09-13T04:56:59;14.60;99.90
1123;DHT22;548;48.778;9.252;2022-09-13T04:59:25;14.30;99.90
1123;DHT22;548;48.778;9.252;2022-09-13T05:06:47;14.50;99.90
1123;DHT22;548;48.778;9.252;2022-09-13T05:09:14;14.40;99.90
1123;DHT22;548;48.778;9.252;2022-09-13T05:11:42;14.60;99.90
1123;DHT22;548;48.778;9.252;2022-09-13T05:14:10;14.60;99.90
1123;DHT22;548;48.778;9.252;2022-09-13T05:16:36;14.90;99.90
1123;DHT22;548;48.778;9.252;2022-09-13T05:21:30;14.60;99.90
1123;DHT22;548;48.778;9.252;2022-09-13T05:23:57;14.50;99.90
1123;DHT22;548;48.778;9.252;2022-09-13T05:26:27;14.50;99.90
1123;DHT22;548;48.778;9.252;2022-09-13T05:28:57;14.50;99.90
1123;DHT22;548;48.778;9.252;2022-09-13T05:31:26;14.50;99.90
1123;DHT22;548;48.778;9.252;2022-09-13T05:33:55;14.60;99.90
1123;DHT22;548;48.778;9.252;2022-09-13T05:36:21;14.50;99.90
1123;DHT22;548;48.778;9.252;2022-09-13T05:38:48;14.60;99.90
1123;DHT22;548;48.778;9.252;2022-09-13T05:41:15;14.40;99.90
1123;DHT22;548;48.778;9.252;2022-09-13T05:43:41;14.50;99.90
1123;DHT22;548;48.778;9.252;2022-09-13T05:46:11;14.60;99.90
1123;DHT22;548;48.778;9.252;2022-09-13T05:48:38;14.60;99.90
1123;DHT22;548;48.778;9.252;2022-09-13T05:51:07;15.10;99.90
1123;DHT22;548;48.778;9.252;2022-09-13T05:53:35;15.10;99.90
1123;DHT22;548;48.778;9.252;2022-09-13T05:58:29;14.80;99.90
1123;DHT22;548;48.778;9.252;2022-09-13T06:00:56;14.80;99.90
1123;DHT22;548;48.778;9.252;2022-09-13T06:03:24;14.90;99.90
1123;DHT22;548;48.778;9.252;2022-09-13T06:05:55;14.90;99.90
1123;DHT22;548;48.778;9.252;2022-09-13T06:08:22;15.60;99.90
1123;DHT22;548;48.778;9.252;2022-09-13T06:10:56;14.90;99.90
1123;DHT22;548;48.778;9.252;2022-09-13T06:13:23;15.10;99.90
1123;DHT22;548;48.778;9.252;2022-09-13T06:15:50;15.40;99.90
1123;DHT22;548;48.778;9.252;2022-09-13T06:18:17;15.90;99.90
1123;DHT22;548;48.778;9.252;2022-09-13T06:20:46;15.80;99.90
1123;DHT22;548;48.778;9.252;2022-09-13T06:23:13;16.00;99.90
1123;DHT22;548;48.778;9.252;2022-09-13T06:25:40;15.80;99.90
1123;DHT22;548;48.778;9.252;2022-09-13T06:28:07;16.30;99.90
1123;DHT22;548;48.778;9.252;2022-09-13T06:30:34;16.20;99.90
1123;DHT22;548;48.778;9.252;2022-09-13T06:33:01;16.30;99.90
1123;DHT22;548;48.778;9.252;2022-09-13T06:35:28;15.80;99.90
1123;DHT22;548;48.778;9.252;2022-09-13T06:37:57;15.90;99.90
1123;DHT22;548;48.778;9.252;2022-09-13T06:40:24;16.00;99.90
1123;DHT22;548;48.778;9.252;2022-09-13T06:42:51;16.30;99.90
1123;DHT22;548;48.778;9.252;2022-09-13T06:45:17;15.70;99.90
1123;DHT22;548;48.778;9.252;2022-09-13T06:47:44;16.00;99.90
1123;DHT22;548;48.778;9.252;2022-09-13T06:50:10;16.00;99.90
1123;DHT22;548;48.778;9.252;2022-09-13T06:52:38;16.60;99.90
1123;DHT22;548;48.778;9.252;2022-09-13T06:55:07;16.50;99.90
1123;DHT22;548;48.778;9.252;2022-09-13T06:57:33;17.00;99.90
1123;DHT22;548;48.778;9.252;2022-09-13T07:00:01;17.50;99.90
1123;DHT22;548;48.778;9.252;2022-09-13T07:02:27;17.10;99.90
1123;DHT22;548;48.778;9.252;2022-09-13T07:04:54;18.10;99.90
1123;DHT22;548;48.778;9.252;2022-09-13T07:07:21;17.60;99.90
1123;DHT22;548;48.778;9.252;2022-09-13T07:09:47;17.50;99.90
1123;DHT22;548;48.778;9.252;2022-09-13T07:12:15;18.30;99.90
1123;DHT22;548;48.778;9.252;2022-09-13T07:14:42;18.20;99.90
1123;DHT22;548;48.778;9.252;2022-09-13T07:17:08;19.10;99.90
1123;DHT22;548;48.778;9.252;2022-09-13T07:19:35;19.30;99.90
1123;DHT22;548;48.778;9.252;2022-09-13T07:22:02;18.80;99.90
1123;DHT22;548;48.778;9.252;2022-09-13T07:24:29;18.50;99.90
1123;DHT22;548;48.778;9.252;2022-09-13T07:26:56;18.60;99.90
1123;DHT22;548;48.778;9.252;2022-09-13T07:29:24;18.40;99.90
1123;DHT22;548;48.778;9.252;2022-09-13T07:31:52;18.30;99.90
1123;DHT22;548;48.778;9.252;2022-09-13T07:34:21;18.70;99.90
1123;DHT22;548;48.778;9.252;2022-09-13T07:36:48;18.20;99.90
1123;DHT22;548;48.778;9.252;2022-09-13T07:39:15;18.00;99.90
1123;DHT22;548;48.778;9.252;2022-09-13T07:41:43;18.00;99.90
1123;DHT22;548;48.778;9.252;2022-09-13T07:44:11;18.50;99.90
1123;DHT22;548;48.778;9.252;2022-09-13T07:46:39;19.30;99.90
1123;DHT22;548;48.778;9.252;2022-09-13T07:49:08;19.10;99.90
1123;DHT22;548;48.778;9.252;2022-09-13T07:51:36;19.10;99.90
1123;DHT22;548;48.778;9.252;2022-09-13T07:54:06;19.30;99.90
1123;DHT22;548;48.778;9.252;2022-09-13T07:56:34;19.60;99.90
1123;DHT22;548;48.778;9.252;2022-09-13T07:59:03;20.10;99.90
1123;DHT22;548;48.778;9.252;2022-09-13T08:01:34;20.80;99.90
1123;DHT22;548;48.778;9.252;2022-09-13T08:04:04;21.30;99.90
1123;DHT22;548;48.778;9.252;2022-09-13T08:06:33;21.80;99.90
1123;DHT22;548;48.778;9.252;2022-09-13T08:09:00;22.10;99.90
1123;DHT22;548;48.778;9.252;2022-09-13T08:11:29;22.10;99.90
1123;DHT22;548;48.778;9.252;2022-09-13T08:13:56;22.10;99.90
1123;DHT22;548;48.778;9.252;2022-09-13T08:16:24;22.20;99.90
1123;DHT22;548;48.778;9.252;2022-09-13T08:18:53;22.30;99.90
1123;DHT22;548;48.778;9.252;2022-09-13T08:21:23;22.40;99.90
1123;DHT22;548;48.778;9.252;2022-09-13T08:23:53;22.50;99.90
1123;DHT22;548;48.778;9.252;2022-09-13T08:26:21;22.50;99.90
1123;DHT22;548;48.778;9.252;2022-09-13T08:28:48;22.60;99.90
1123;DHT22;548;48.778;9.252;2022-09-13T08:31:15;22.40;99.90
1123;DHT22;548;48.778;9.252;2022-09-13T08:33:45;22.40;99.90
1123;DHT22;548;48.778;9.252;2022-09-13T08:36:13;22.30;99.90
1123;DHT22;548;48.778;9.252;2022-09-13T08:38:45;22.40;99.90
1123;DHT22;548;48.778;9.252;2022-09-13T08:44:07;22.60;99.90
1123;DHT22;548;48.778;9.252;2022-09-13T08:46:39;22.90;99.90
1123;DHT22;548;48.778;9.252;2022-09-13T08:49:11;23.60;99.90
1123;DHT22;548;48.778;9.252;2022-09-13T08:51:45;24.40;99.90
1123;DHT22;548;48.778;9.252;2022-09-13T08:54:28;24.30;99.90
1123;DHT22;548;48.778;9.252;2022-09-13T08:56:58;24.50;99.90
1123;DHT22;548;48.778;9.252;2022-09-13T08:59:47;24.20;99.90
1123;DHT22;548;48.778;9.252;2022-09-13T09:02:26;24.10;99.90
1123;DHT22;548;48.778;9.252;2022-09-13T09:04:56;24.00;99.90
1123;DHT22;548;48.778;9.252;2022-09-13T09:07:30;24.60;99.90
1123;DHT22;548;48.778;9.252;2022-09-13T09:10:02;24.40;99.00
1123;DHT22;548;48.778;9.252;2022-09-13T09:12:35;24.30;99.50
1123;DHT22;548;48.778;9.252;2022-09-13T09:15:10;24.20;99.80
1123;DHT22;548;48.778;9.252;2022-09-13T09:17:44;24.60;99.10
1123;DHT22;548;48.778;9.252;2022-09-13T09:20:23;26.00;96.20
1123;DHT22;548;48.778;9.252;2022-09-13T09:22:52;26.90;94.10
1123;DHT22;548;48.778;9.252;2022-09-13T09:25:23;26.60;94.00
1123;DHT22;548;48.778;9.252;2022-09-13T09:27:50;26.10;94.50
1123;DHT22;548;48.778;9.252;2022-09-13T09:30:18;26.10;95.00
1123;DHT22;548;48.778;9.252;2022-09-13T09:32:56;26.50;94.60
1123;DHT22;548;48.778;9.252;2022-09-13T09:35:41;27.20;93.00
1123;DHT22;548;48.778;9.252;2022-09-13T09:38:26;27.90;91.10
1123;DHT22;548;48.778;9.252;2022-09-13T09:41:00;29.50;99.90
1123;DHT22;548;48.778;9.252;2022-09-13T09:43:34;29.60;85.60
1123;DHT22;548;48.778;9.252;2022-09-13T09:46:05;30.00;81.40
1123;DHT22;548;48.778;9.252;2022-09-13T09:48:38;30.20;81.00
1123;DHT22;548;48.778;9.252;2022-09-13T09:51:07;30.40;78.50
1123;DHT22;548;48.778;9.252;2022-09-13T09:53:39;31.70;76.60
1123;DHT22;548;48.778;9.252;2022-09-13T09:56:21;33.10;69.70
1123;DHT22;548;48.778;9.252;2022-09-13T09:58:49;33.30;65.00
1123;DHT22;548;48.778;9.252;2022-09-13T10:01:20;32.90;69.30
1123;DHT22;548;48.778;9.252;2022-09-13T10:03:51;32.50;69.10
1123;DHT22;548;48.778;9.252;2022-09-13T10:06:21;32.00;67.90
1123;DHT22;548;48.778;9.252;2022-09-13T10:08:55;32.20;68.90
1123;DHT22;548;48.778;9.252;2022-09-13T10:11:37;32.20;69.60
1123;DHT22;548;48.778;9.252;2022-09-13T10:14:04;32.70;67.70
1123;DHT22;548;48.778;9.252;2022-09-13T10:16:31;33.10;67.80
1123;DHT22;548;48.778;9.252;2022-09-13T10:19:21;33.70;92.30
1123;DHT22;548;48.778;9.252;2022-09-13T10:22:02;33.90;61.10
1123;DHT22;548;48.778;9.252;2022-09-13T10:24:30;34.10;94.00
1123;DHT22;548;48.778;9.252;2022-09-13T10:26:59;34.40;63.10
1123;DHT22;548;48.778;9.252;2022-09-13T10:29:28;35.80;68.20
1123;DHT22;548;48.778;9.252;2022-09-13T10:31:56;38.10;88.20
1123;DHT22;548;48.778;9.252;2022-09-13T10:34:28;38.40;71.50
1123;DHT22;548;48.778;9.252;2022-09-13T10:36:58;37.00;66.70
1123;DHT22;548;48.778;9.252;2022-09-13T10:39:28;37.40;64.40
1123;DHT22;548;48.778;9.252;2022-09-13T10:41:57;38.80;55.50
1123;DHT22;548;48.778;9.252;2022-09-13T10:44:31;39.60;52.60
1123;DHT22;548;48.778;9.252;2022-09-13T10:47:02;40.10;50.50
1123;DHT22;548;48.778;9.252;2022-09-13T10:49:37;37.70;52.10
1123;DHT22;548;48.778;9.252;2022-09-13T10:52:23;38.80;52.50
1123;DHT22;548;48.778;9.252;2022-09-13T10:54:50;37.50;51.60
1123;DHT22;548;48.778;9.252;2022-09-13T10:57:35;37.10;49.40
1123;DHT22;548;48.778;9.252;2022-09-13T11:00:05;37.30;48.60
1123;DHT22;548;48.778;9.252;2022-09-13T11:02:45;37.70;46.50
1123;DHT22;548;48.778;9.252;2022-09-13T11:05:23;38.80;47.20
1123;DHT22;548;48.778;9.252;2022-09-13T11:10:52;38.90;39.80
1123;DHT22;548;48.778;9.252;2022-09-13T11:13:26;39.20;42.10
1123;DHT22;548;48.778;9.252;2022-09-13T11:16:16;40.10;41.70
1123;DHT22;548;48.778;9.252;2022-09-13T11:19:00;39.70;41.00
1123;DHT22;548;48.778;9.252;2022-09-13T11:21:42;38.90;37.10
1123;DHT22;548;48.778;9.252;2022-09-13T11:24:41;37.60;44.20
1123;DHT22;548;48.778;9.252;2022-09-13T11:27:20;35.30;42.40
1123;DHT22;548;48.778;9.252;2022-09-13T11:30:07;35.90;47.00
1123;DHT22;548;48.778;9.252;2022-09-13T11:33:06;36.50;45.50
1123;DHT22;548;48.778;9.252;2022-09-13T11:35:53;36.70;40.90
1123;DHT22;548;48.778;9.252;2022-09-13T11:38:35;36.60;44.20
1123;DHT22;548;48.778;9.252;2022-09-13T11:41:12;36.30;75.70
1123;DHT22;548;48.778;9.252;2022-09-13T11:43:53;36.90;44.20
1123;DHT22;548;48.778;9.252;2022-09-13T11:46:27;37.00;44.40
1123;DHT22;548;48.778;9.252;2022-09-13T11:49:36;36.20;44.60
1123;DHT22;548;48.778;9.252;2022-09-13T11:52:13;35.50;41.40
1123;DHT22;548;48.778;9.252;2022-09-13T11:54:51;35.40;44.60
1123;DHT22;548;48.778;9.252;2022-09-13T11:57:24;35.80;44.40
1123;DHT22;548;48.778;9.252;2022-09-13T11:59:54;35.80;42.40
1123;DHT22;548;48.778;9.252;2022-09-13T12:02:26;36.40;42.60
1123;DHT22;548;48.778;9.252;2022-09-13T12:05:02;36.50;42.20
1123;DHT22;548;48.778;9.252;2022-09-13T12:07:34;36.10;72.00
1123;DHT22;548;48.778;9.252;2022-09-13T12:10:06;36.80;41.60
1123;DHT22;548;48.778;9.252;2022-09-13T12:12:39;35.40;41.10
1123;DHT22;548;48.778;9.252;2022-09-13T12:15:13;34.90;61.10
1123;DHT22;548;48.778;9.252;2022-09-13T12:17:44;35.30;40.70
1123;DHT22;548;48.778;9.252;2022-09-13T12:20:30;35.20;40.70
1123;DHT22;548;48.778;9.252;2022-09-13T12:23:00;35.70;39.20
1123;DHT22;548;48.778;9.252;2022-09-13T12:25:37;35.80;38.50
1123;DHT22;548;48.778;9.252;2022-09-13T12:28:14;36.00;68.50
1123;DHT22;548;48.778;9.252;2022-09-13T12:30:46;36.70;38.10
1123;DHT22;548;48.778;9.252;2022-09-13T12:33:15;36.20;37.70
1123;DHT22;548;48.778;9.252;2022-09-13T12:35:52;35.70;38.40
1123;DHT22;548;48.778;9.252;2022-09-13T12:38:36;35.50;38.10
1123;DHT22;548;48.778;9.252;2022-09-13T12:41:17;36.00;66.10
1123;DHT22;548;48.778;9.252;2022-09-13T12:47:15;36.60;33.70
1123;DHT22;548;48.778;9.252;2022-09-13T12:50:07;37.70;33.70
1123;DHT22;548;48.778;9.252;2022-09-13T12:52:40;37.90;32.70
1123;DHT22;548;48.778;9.252;2022-09-13T12:55:30;38.60;36.50
1123;DHT22;548;48.778;9.252;2022-09-13T12:58:17;39.20;31.00
1123;DHT22;548;48.778;9.252;2022-09-13T13:01:02;40.20;34.80
1123;DHT22;548;48.778;9.252;2022-09-13T13:03:32;40.00;34.60
1123;DHT22;548;48.778;9.252;2022-09-13T13:06:07;39.40;34.70
1123;DHT22;548;48.778;9.252;2022-09-13T13:08:37;38.70;34.20
1123;DHT22;548;48.778;9.252;2022-09-13T13:11:07;38.00;34.60
1123;DHT22;548;48.778;9.252;2022-09-13T13:13:37;35.90;66.50
1123;DHT22;548;48.778;9.252;2022-09-13T13:16:25;36.30;37.20
1123;DHT22;548;48.778;9.252;2022-09-13T13:19:28;36.00;34.40
1123;DHT22;548;48.778;9.252;2022-09-13T13:25:30;34.60;35.20
1123;DHT22;548;48.778;9.252;2022-09-13T13:27:57;34.80;38.20
1123;DHT22;548;48.778;9.252;2022-09-13T13:30:49;35.30;38.30
1123;DHT22;548;48.778;9.252;2022-09-13T13:33:19;35.90;35.00
1123;DHT22;548;48.778;9.252;2022-09-13T13:35:46;35.30;35.20
1123;DHT22;548;48.778;9.252;2022-09-13T13:41:38;34.30;58.00
1123;DHT22;548;48.778;9.252;2022-09-13T13:47:41;34.10;33.40
1123;DHT22;548;48.778;9.252;2022-09-13T13:50:13;33.80;32.40
1123;DHT22;548;48.778;9.252;2022-09-13T13:52:51;34.00;38.60
1123;DHT22;548;48.778;9.252;2022-09-13T13:55:29;34.10;40.20
1123;DHT22;548;48.778;9.252;2022-09-13T13:58:02;34.60;40.50
1123;DHT22;548;48.778;9.252;2022-09-13T14:00:31;34.70;40.00
1123;DHT22;548;48.778;9.252;2022-09-13T14:03:09;33.80;45.40
1123;DHT22;548;48.778;9.252;2022-09-13T14:05:48;33.90;40.00
1123;DHT22;548;48.778;9.252;2022-09-13T14:08:34;34.10;39.20
1123;DHT22;548;48.778;9.252;2022-09-13T14:11:12;33.80;37.30
1123;DHT22;548;48.778;9.252;2022-09-13T14:13:56;34.50;37.20
1123;DHT22;548;48.778;9.252;2022-09-13T14:16:38;33.80;33.50
1123;DHT22;548;48.778;9.252;2022-09-13T14:19:18;33.80;32.40
1123;DHT22;548;48.778;9.252;2022-09-13T14:22:05;33.40;36.90
1123;DHT22;548;48.778;9.252;2022-09-13T14:24:35;33.80;37.20
1123;DHT22;548;48.778;9.252;2022-09-13T14:27:02;33.90;38.10
1123;DHT22;548;48.778;9.252;2022-09-13T14:29:31;33.70;38.90
1123;DHT22;548;48.778;9.252;2022-09-13T14:32:02;33.60;39.90
1123;DHT22;548;48.778;9.252;2022-09-13T14:34:31;33.00;38.80
1123;DHT22;548;48.778;9.252;2022-09-13T14:37:00;33.40;40.50
1123;DHT22;548;48.778;9.252;2022-09-13T14:39:28;33.20;39.70
1123;DHT22;548;48.778;9.252;2022-09-13T14:41:59;33.70;40.50
1123;DHT22;548;48.778;9.252;2022-09-13T14:44:27;34.00;41.10
1123;DHT22;548;48.778;9.252;2022-09-13T14:47:02;34.00;41.80
1123;DHT22;548;48.778;9.252;2022-09-13T14:49:34;33.60;40.80
1123;DHT22;548;48.778;9.252;2022-09-13T14:52:04;33.70;38.90
1123;DHT22;548;48.778;9.252;2022-09-13T14:54:35;33.20;40.20
1123;DHT22;548;48.778;9.252;2022-09-13T14:57:05;33.20;44.70
1123;DHT22;548;48.778;9.252;2022-09-13T14:59:36;33.70;46.80
1123;DHT22;548;48.778;9.252;2022-09-13T15:02:16;32.20;45.60
1123;DHT22;548;48.778;9.252;2022-09-13T15:04:47;32.30;46.60
1123;DHT22;548;48.778;9.252;2022-09-13T15:07:26;31.30;48.60
1123;DHT22;548;48.778;9.252;2022-09-13T15:09:56;30.20;49.60
1123;DHT22;548;48.778;9.252;2022-09-13T15:12:25;30.60;50.40
1123;DHT22;548;48.778;9.252;2022-09-13T15:15:21;30.10;51.70
1123;DHT22;548;48.778;9.252;2022-09-13T15:17:53;30.10;48.00
1123;DHT22;548;48.778;9.252;2022-09-13T15:20:20;30.10;52.70
1123;DHT22;548;48.778;9.252;2022-09-13T15:22:47;29.70;52.70
1123;DHT22;548;48.778;9.252;2022-09-13T15:25:19;29.10;53.30
1123;DHT22;548;48.778;9.252;2022-09-13T15:27:47;28.80;53.00
1123;DHT22;548;48.778;9.252;2022-09-13T15:30:24;28.90;53.70
1123;DHT22;548;48.778;9.252;2022-09-13T15:33:16;28.60;53.10
1123;DHT22;548;48.778;9.252;2022-09-13T15:35:45;28.60;52.40
1123;DHT22;548;48.778;9.252;2022-09-13T15:38:23;28.50;53.00
1123;DHT22;548;48.778;9.252;2022-09-13T15:41:00;28.90;52.50
1123;DHT22;548;48.778;9.252;2022-09-13T15:43:27;28.70;52.20
1123;DHT22;548;48.778;9.252;2022-09-13T15:45:56;28.60;53.10
1123;DHT22;548;48.778;9.252;2022-09-13T15:48:26;29.50;52.50
1123;DHT22;548;48.778;9.252;2022-09-13T15:51:05;28.60;51.10
1123;DHT22;548;48.778;9.252;2022-09-13T15:53:33;28.50;50.70
1123;DHT22;548;48.778;9.252;2022-09-13T15:56:00;28.60;51.80
1123;DHT22;548;48.778;9.252;2022-09-13T15:58:28;28.40;51.90
1123;DHT22;548;48.778;9.252;2022-09-13T16:00:54;28.40;52.10
1123;DHT22;548;48.778;9.252;2022-09-13T16:03:21;28.40;52.30
1123;DHT22;548;48.778;9.252;2022-09-13T16:05:49;28.60;53.30
1123;DHT22;548;48.778;9.252;2022-09-13T16:08:16;28.40;52.80
1123;DHT22;548;48.778;9.252;2022-09-13T16:10:42;28.40;53.20
1123;DHT22;548;48.778;9.252;2022-09-13T16:13:09;28.30;53.50
1123;DHT22;548;48.778;9.252;2022-09-13T16:15:36;29.20;54.30
1123;DHT22;548;48.778;9.252;2022-09-13T16:18:03;28.60;53.90
1123;DHT22;548;48.778;9.252;2022-09-13T16:20:30;28.30;53.70
1123;DHT22;548;48.778;9.252;2022-09-13T16:22:58;28.00;54.20
1123;DHT22;548;48.778;9.252;2022-09-13T16:25:27;28.10;55.10
1123;DHT22;548;48.778;9.252;2022-09-13T16:27:55;27.80;55.40
1123;DHT22;548;48.778;9.252;2022-09-13T16:30:23;27.90;55.60
1123;DHT22;548;48.778;9.252;2022-09-13T16:32:53;27.50;54.30
1123;DHT22;548;48.778;9.252;2022-09-13T16:35:20;27.50;54.40
1123;DHT22;548;48.778;9.252;2022-09-13T16:37:47;27.70;56.20
1123;DHT22;548;48.778;9.252;2022-09-13T16:40:18;27.60;55.90
1123;DHT22;548;48.778;9.252;2022-09-13T16:42:45;28.60;56.60
1123;DHT22;548;48.778;9.252;2022-09-13T16:45:11;27.50;56.80
1123;DHT22;548;48.778;9.252;2022-09-13T16:48:17;27.40;57.30
1123;DHT22;548;48.778;9.252;2022-09-13T16:50:44;27.20;53.50
1123;DHT22;548;48.778;9.252;2022-09-13T16:53:11;27.40;59.10
1123;DHT22;548;48.778;9.252;2022-09-13T16:55:39;27.40;59.90
1123;DHT22;548;48.778;9.252;2022-09-13T16:58:06;27.00;59.20
1123;DHT22;548;48.778;9.252;2022-09-13T17:00:33;27.40;61.60
1123;DHT22;548;48.778;9.252;2022-09-13T17:02:59;27.00;60.40
1123;DHT22;548;48.778;9.252;2022-09-13T17:05:26;27.20;61.80
1123;DHT22;548;48.778;9.252;2022-09-13T17:07:53;26.80;61.60
1123;DHT22;548;48.778;9.252;2022-09-13T17:10:20;26.90;63.70
1123;DHT22;548;48.778;9.252;2022-09-13T17:12:48;26.80;63.40
1123;DHT22;548;48.778;9.252;2022-09-13T17:15:15;26.70;63.40
1123;DHT22;548;48.778;9.252;2022-09-13T17:17:45;26.50;65.10
1123;DHT22;548;48.778;9.252;2022-09-13T17:20:12;26.70;65.90
1123;DHT22;548;48.778;9.252;2022-09-13T17:22:39;26.90;67.40
1123;DHT22;548;48.778;9.252;2022-09-13T17:25:07;26.20;67.20
1123;DHT22;548;48.778;9.252;2022-09-13T17:27:33;26.10;66.50
1123;DHT22;548;48.778;9.252;2022-09-13T17:30:03;26.20;66.70
1123;DHT22;548;48.778;9.252;2022-09-13T17:32:31;26.10;66.60
1123;DHT22;548;48.778;9.252;2022-09-13T17:34:57;26.20;68.50
1123;DHT22;548;48.778;9.252;2022-09-13T17:37:24;26.10;68.20
1123;DHT22;548;48.778;9.252;2022-09-13T17:39:51;26.20;69.00
1123;DHT22;548;48.778;9.252;2022-09-13T17:42:17;26.00;70.30
1123;DHT22;548;48.778;9.252;2022-09-13T17:44:44;26.50;72.00
1123;DHT22;548;48.778;9.252;2022-09-13T17:47:12;25.90;72.60
1123;DHT22;548;48.778;9.252;2022-09-13T17:49:39;25.80;73.60
1123;DHT22;548;48.778;9.252;2022-09-13T17:52:06;25.70;73.80
1123;DHT22;548;48.778;9.252;2022-09-13T17:54:33;25.80;75.20
1123;DHT22;548;48.778;9.252;2022-09-13T17:57:00;26.20;77.30
1123;DHT22;548;48.778;9.252;2022-09-13T17:59:27;25.80;79.40
1123;DHT22;548;48.778;9.252;2022-09-13T18:01:54;24.00;78.00
1123;DHT22;548;48.778;9.252;2022-09-13T18:04:25;25.30;79.90
1123;DHT22;548;48.778;9.252;2022-09-13T18:06:52;25.00;80.80
1123;DHT22;548;48.778;9.252;2022-09-13T18:09:19;25.00;82.00
1123;DHT22;548;48.778;9.252;2022-09-13T18:11:47;24.40;81.70
1123;DHT22;548;48.778;9.252;2022-09-13T18:14:15;24.70;83.30
1123;DHT22;548;48.778;9.252;2022-09-13T18:16:43;24.80;85.90
1123;DHT22;548;48.778;9.252;2022-09-13T18:19:10;24.40;85.70
1123;DHT22;548;48.778;9.252;2022-09-13T18:21:38;24.10;87.50
1123;DHT22;548;48.778;9.252;2022-09-13T18:24:05;24.60;88.30
1123;DHT22;548;48.778;9.252;2022-09-13T18:26:32;23.80;87.80
1123;DHT22;548;48.778;9.252;2022-09-13T18:29:00;24.00;89.30
1123;DHT22;548;48.778;9.252;2022-09-13T18:31:28;23.90;89.40
1123;DHT22;548;48.778;9.252;2022-09-13T18:33:57;23.90;91.20
1123;DHT22;548;48.778;9.252;2022-09-13T18:36:24;24.10;92.40
1123;DHT22;548;48.778;9.252;2022-09-13T18:38:52;23.60;92.80
1123;DHT22;548;48.778;9.252;2022-09-13T18:41:21;23.60;93.60
1123;DHT22;548;48.778;9.252;2022-09-13T18:43:49;23.20;94.10
1123;DHT22;548;48.778;9.252;2022-09-13T18:46:18;23.20;96.60
1123;DHT22;548;48.778;9.252;2022-09-13T18:48:46;23.50;96.80
1123;DHT22;548;48.778;9.252;2022-09-13T18:51:14;23.50;97.40
1123;DHT22;548;48.778;9.252;2022-09-13T18:53:42;22.80;97.40
1123;DHT22;548;48.778;9.252;2022-09-13T18:56:11;22.80;99.90
1123;DHT22;548;48.778;9.252;2022-09-13T18:58:39;22.80;98.90
1123;DHT22;548;48.778;9.252;2022-09-13T19:01:09;23.10;99.50
1123;DHT22;548;48.778;9.252;2022-09-13T19:03:37;22.80;99.50
1123;DHT22;548;48.778;9.252;2022-09-13T19:06:12;22.20;99.40
1123;DHT22;548;48.778;9.252;2022-09-13T19:08:39;22.80;99.90